sensor_id;sensor_type;location;lat;lon;timestamp;P1;durP1;ratioP1;P2;durP2;ratioP2
9072;SDS011;4572;41.642;25.370;2023-04-15T00:00:38;2.37;;;1.90;;
9072;SDS011;4572;41.642;25.370;2023-04-15T00:03:03;4.77;;;2.33;;
9072;SDS011;4572;41.642;25.370;2023-04-15T00:05:31;5.63;;;2.10;;
9072;SDS011;4572;41.642;25.370;2023-04-15T00:07:56;4.87;;;2.90;;
9072;SDS011;4572;41.642;25.370;2023-04-15T00:10:23;3.83;;;1.63;;
9072;SDS011;4572;41.642;25.370;2023-04-15T00:12:49;2.83;;;2.00;;
9072;SDS011;4572;41.642;25.370;2023-04-15T00:15:15;2.30;;;2.00;;
9072;SDS011;4572;41.642;25.370;2023-04-15T00:17:41;3.37;;;2.20;;
9072;SDS011;4572;41.642;25.370;2023-04-15T00:20:07;3.40;;;1.83;;
9072;SDS011;4572;41.642;25.370;2023-04-15T00:22:32;3.83;;;2.00;;
9072;SDS011;4572;41.642;25.370;2023-04-15T00:24:58;3.60;;;2.17;;
9072;SDS011;4572;41.642;25.370;2023-04-15T00:27:23;2.37;;;2.00;;
9072;SDS011;4572;41.642;25.370;2023-04-15T00:29:49;3.00;;;1.97;;
9072;SDS011;4572;41.642;25.370;2023-04-15T00:32:15;2.57;;;1.90;;
9072;SDS011;4572;41.642;25.370;2023-04-15T00:34:41;4.50;;;2.40;;
9072;SDS011;4572;41.642;25.370;2023-04-15T00:37:07;3.93;;;2.20;;
9072;SDS011;4572;41.642;25.370;2023-04-15T00:39:34;3.47;;;2.27;;
9072;SDS011;4572;41.642;25.370;2023-04-15T00:41:59;3.20;;;2.10;;
9072;SDS011;4572;41.642;25.370;2023-04-15T00:44:25;2.53;;;2.13;;
9072;SDS011;4572;41.642;25.370;2023-04-15T00:46:50;4.63;;;2.40;;
9072;SDS011;4572;41.642;25.370;2023-04-15T00:49:17;4.27;;;2.47;;
9072;SDS011;4572;41.642;25.370;2023-04-15T00:51:43;2.33;;;2.13;;
9072;SDS011;4572;41.642;25.370;2023-04-15T00:54:08;1.83;;;1.73;;
9072;SDS011;4572;41.642;25.370;2023-04-15T00:56:35;5.27;;;1.93;;
9072;SDS011;4572;41.642;25.370;2023-04-15T00:59:02;1.80;;;1.50;;
9072;SDS011;4572;41.642;25.370;2023-04-15T01:01:28;2.03;;;1.83;;
9072;SDS011;4572;41.642;25.370;2023-04-15T01:03:54;5.33;;;2.00;;
9072;SDS011;4572;41.642;25.370;2023-04-15T01:06:21;2.20;;;1.80;;
9072;SDS011;4572;41.642;25.370;2023-04-15T01:08:47;2.03;;;1.87;;
9072;SDS011;4572;41.642;25.370;2023-04-15T01:11:12;3.00;;;1.47;;
9072;SDS011;4572;41.642;25.370;2023-04-15T01:13:39;4.70;;;2.10;;
9072;SDS011;4572;41.642;25.370;2023-04-15T01:16:04;6.17;;;2.10;;
9072;SDS011;4572;41.642;25.370;2023-04-15T01:18:31;3.43;;;2.20;;
9072;SDS011;4572;41.642;25.370;2023-04-15T01:20:57;4.27;;;2.13;;
9072;SDS011;4572;41.642;25.370;2023-04-15T01:23:26;2.60;;;2.10;;
9072;SDS011;4572;41.642;25.370;2023-04-15T01:25:52;3.17;;;2.13;;
9072;SDS011;4572;41.642;25.370;2023-04-15T01:28:17;2.53;;;1.93;;
9072;SDS011;4572;41.642;25.370;2023-04-15T01:30:43;3.27;;;1.87;;
9072;SDS011;4572;41.642;25.370;2023-04-15T01:33:08;6.37;;;2.10;;
9072;SDS011;4572;41.642;25.370;2023-04-15T01:35:34;3.47;;;1.87;;
9072;SDS011;4572;41.642;25.370;2023-04-15T01:38:07;2.93;;;1.87;;
9072;SDS011;4572;41.642;25.370;2023-04-15T01:40:33;2.90;;;1.90;;
9072;SDS011;4572;41.642;25.370;2023-04-15T01:42:59;4.03;;;2.00;;
9072;SDS011;4572;41.642;25.370;2023-04-15T01:45:26;3.83;;;1.90;;
9072;SDS011;4572;41.642;25.370;2023-04-15T01:47:52;2.03;;;1.83;;
9072;SDS011;4572;41.642;25.370;2023-04-15T01:50:18;3.90;;;2.17;;
9072;SDS011;4572;41.642;25.370;2023-04-15T01:52:46;3.00;;;2.00;;
9072;SDS011;4572;41.642;25.370;2023-04-15T01:55:11;2.23;;;1.63;;
9072;SDS011;4572;41.642;25.370;2023-04-15T01:57:38;3.13;;;1.90;;
9072;SDS011;4572;41.642;25.370;2023-04-15T02:00:04;3.90;;;2.27;;
9072;SDS011;4572;41.642;25.370;2023-04-15T02:02:32;2.67;;;2.07;;
9072;SDS011;4572;41.642;25.370;2023-04-15T02:04:57;3.60;;;2.07;;
9072;SDS011;4572;41.642;25.370;2023-04-15T02:07:23;2.50;;;2.30;;
9072;SDS011;4572;41.642;25.370;2023-04-15T02:09:48;2.23;;;2.03;;
9072;SDS011;4572;41.642;25.370;2023-04-15T02:12:14;4.13;;;1.70;;
9072;SDS011;4572;41.642;25.370;2023-04-15T02:14:39;3.30;;;1.53;;
9072;SDS011;4572;41.642;25.370;2023-04-15T02:17:05;2.43;;;1.73;;
9072;SDS011;4572;41.642;25.370;2023-04-15T02:19:34;2.07;;;1.40;;
9072;SDS011;4572;41.642;25.370;2023-04-15T02:22:00;3.13;;;2.00;;
9072;SDS011;4572;41.642;25.370;2023-04-15T02:24:26;2.97;;;1.83;;
9072;SDS011;4572;41.642;25.370;2023-04-15T02:26:52;4.40;;;2.27;;
9072;SDS011;4572;41.642;25.370;2023-04-15T02:29:17;2.53;;;2.00;;
9072;SDS011;4572;41.642;25.370;2023-04-15T02:31:43;3.93;;;1.97;;
9072;SDS011;4572;41.642;25.370;2023-04-15T02:34:09;4.63;;;2.50;;
9072;SDS011;4572;41.642;25.370;2023-04-15T02:36:35;4.43;;;1.90;;
9072;SDS011;4572;41.642;25.370;2023-04-15T02:39:01;3.00;;;1.80;;
9072;SDS011;4572;41.642;25.370;2023-04-15T02:41:27;5.13;;;2.17;;
9072;SDS011;4572;41.642;25.370;2023-04-15T02:43:54;4.03;;;2.40;;
9072;SDS011;4572;41.642;25.370;2023-04-15T02:46:20;3.93;;;2.23;;
9072;SDS011;4572;41.642;25.370;2023-04-15T02:48:47;2.70;;;1.63;;
9072;SDS011;4572;41.642;25.370;2023-04-15T02:51:13;2.67;;;2.23;;
9072;SDS011;4572;41.642;25.370;2023-04-15T02:53:44;6.20;;;2.43;;
9072;SDS011;4572;41.642;25.370;2023-04-15T02:56:10;4.00;;;1.70;;
9072;SDS011;4572;41.642;25.370;2023-04-15T02:58:36;5.23;;;2.20;;
9072;SDS011;4572;41.642;25.370;2023-04-15T03:01:03;3.33;;;1.83;;
9072;SDS011;4572;41.642;25.370;2023-04-15T03:03:29;3.30;;;2.00;;
9072;SDS011;4572;41.642;25.370;2023-04-15T03:05:54;2.60;;;2.00;;
9072;SDS011;4572;41.642;25.370;2023-04-15T03:08:20;3.47;;;2.10;;
9072;SDS011;4572;41.642;25.370;2023-04-15T03:10:45;4.63;;;1.97;;
9072;SDS011;4572;41.642;25.370;2023-04-15T03:13:11;4.33;;;2.60;;
9072;SDS011;4572;41.642;25.370;2023-04-15T03:15:37;3.47;;;2.37;;
9072;SDS011;4572;41.642;25.370;2023-04-15T03:18:04;4.63;;;2.27;;
9072;SDS011;4572;41.642;25.370;2023-04-15T03:20:30;5.40;;;2.37;;
9072;SDS011;4572;41.642;25.370;2023-04-15T03:22:55;5.17;;;2.07;;
9072;SDS011;4572;41.642;25.370;2023-04-15T03:25:21;5.57;;;2.20;;
9072;SDS011;4572;41.642;25.370;2023-04-15T03:27:46;2.77;;;2.27;;
9072;SDS011;4572;41.642;25.370;2023-04-15T03:30:12;2.70;;;1.93;;
9072;SDS011;4572;41.642;25.370;2023-04-15T03:32:37;2.10;;;1.90;;
9072;SDS011;4572;41.642;25.370;2023-04-15T03:35:03;2.37;;;1.80;;
9072;SDS011;4572;41.642;25.370;2023-04-15T03:37:29;3.73;;;1.80;;
9072;SDS011;4572;41.642;25.370;2023-04-15T03:39:55;4.03;;;2.30;;
9072;SDS011;4572;41.642;25.370;2023-04-15T03:42:20;5.70;;;1.80;;
9072;SDS011;4572;41.642;25.370;2023-04-15T03:44:46;2.40;;;1.77;;
9072;SDS011;4572;41.642;25.370;2023-04-15T03:47:11;3.77;;;1.70;;
9072;SDS011;4572;41.642;25.370;2023-04-15T03:49:37;3.73;;;1.70;;
9072;SDS011;4572;41.642;25.370;2023-04-15T03:52:03;4.03;;;2.70;;
9072;SDS011;4572;41.642;25.370;2023-04-15T03:54:29;2.97;;;2.40;;
9072;SDS011;4572;41.642;25.370;2023-04-15T03:56:55;5.80;;;2.10;;
9072;SDS011;4572;41.642;25.370;2023-04-15T03:59:20;3.10;;;2.43;;
9072;SDS011;4572;41.642;25.370;2023-04-15T04:01:46;4.57;;;1.97;;
9072;SDS011;4572;41.642;25.370;2023-04-15T04:04:11;3.63;;;2.07;;
9072;SDS011;4572;41.642;25.370;2023-04-15T04:06:37;3.67;;;1.90;;
9072;SDS011;4572;41.642;25.370;2023-04-15T04:09:02;3.87;;;2.20;;
9072;SDS011;4572;41.642;25.370;2023-04-15T04:11:28;3.27;;;2.80;;
9072;SDS011;4572;41.642;25.370;2023-04-15T04:13:53;2.97;;;2.23;;
9072;SDS011;4572;41.642;25.370;2023-04-15T04:16:19;3.00;;;2.67;;
9072;SDS011;4572;41.642;25.370;2023-04-15T04:18:44;6.50;;;3.00;;
9072;SDS011;4572;41.642;25.370;2023-04-15T04:21:10;3.60;;;2.40;;
9072;SDS011;4572;41.642;25.370;2023-04-15T04:23:35;3.23;;;2.63;;
9072;SDS011;4572;41.642;25.370;2023-04-15T04:26:01;2.73;;;2.03;;
9072;SDS011;4572;41.642;25.370;2023-04-15T04:28:26;5.47;;;2.47;;
9072;SDS011;4572;41.642;25.370;2023-04-15T04:30:52;5.27;;;2.67;;
9072;SDS011;4572;41.642;25.370;2023-04-15T04:33:17;6.13;;;3.20;;
9072;SDS011;4572;41.642;25.370;2023-04-15T04:35:43;4.43;;;2.50;;
9072;SDS011;4572;41.642;25.370;2023-04-15T04:38:08;5.37;;;3.53;;
9072;SDS011;4572;41.642;25.370;2023-04-15T04:40:34;4.00;;;3.30;;
9072;SDS011;4572;41.642;25.370;2023-04-15T04:43:00;4.53;;;2.57;;
9072;SDS011;4572;41.642;25.370;2023-04-15T04:45:25;5.73;;;3.20;;
9072;SDS011;4572;41.642;25.370;2023-04-15T04:47:51;10.77;;;7.67;;
9072;SDS011;4572;41.642;25.370;2023-04-15T04:50:16;10.83;;;6.13;;
9072;SDS011;4572;41.642;25.370;2023-04-15T04:52:42;9.13;;;5.47;;
9072;SDS011;4572;41.642;25.370;2023-04-15T04:55:07;7.53;;;4.60;;
9072;SDS011;4572;41.642;25.370;2023-04-15T04:57:34;5.77;;;4.33;;
9072;SDS011;4572;41.642;25.370;2023-04-15T05:00:00;5.17;;;4.37;;
9072;SDS011;4572;41.642;25.370;2023-04-15T05:02:27;8.63;;;4.17;;
9072;SDS011;4572;41.642;25.370;2023-04-15T05:04:53;9.13;;;5.23;;
9072;SDS011;4572;41.642;25.370;2023-04-15T05:07:18;6.77;;;4.60;;
9072;SDS011;4572;41.642;25.370;2023-04-15T05:09:45;4.13;;;3.10;;
9072;SDS011;4572;41.642;25.370;2023-04-15T05:12:10;6.57;;;5.33;;
9072;SDS011;4572;41.642;25.370;2023-04-15T05:14:39;9.20;;;4.90;;
9072;SDS011;4572;41.642;25.370;2023-04-15T05:17:05;6.57;;;4.00;;
9072;SDS011;4572;41.642;25.370;2023-04-15T05:19:31;7.03;;;5.73;;
9072;SDS011;4572;41.642;25.370;2023-04-15T05:21:56;5.60;;;3.10;;
9072;SDS011;4572;41.642;25.370;2023-04-15T05:24:22;3.23;;;2.47;;
9072;SDS011;4572;41.642;25.370;2023-04-15T05:26:47;5.17;;;2.43;;
9072;SDS011;4572;41.642;25.370;2023-04-15T05:29:13;3.13;;;2.30;;
9072;SDS011;4572;41.642;25.370;2023-04-15T05:31:38;3.10;;;2.67;;
9072;SDS011;4572;41.642;25.370;2023-04-15T05:34:04;3.30;;;2.53;;
9072;SDS011;4572;41.642;25.370;2023-04-15T05:36:29;5.27;;;2.50;;
9072;SDS011;4572;41.642;25.370;2023-04-15T05:38:56;2.20;;;2.00;;
9072;SDS011;4572;41.642;25.370;2023-04-15T05:41:21;3.13;;;2.40;;
9072;SDS011;4572;41.642;25.370;2023-04-15T05:43:47;5.37;;;2.90;;
9072;SDS011;4572;41.642;25.370;2023-04-15T05:46:12;3.33;;;2.37;;
9072;SDS011;4572;41.642;25.370;2023-04-15T05:48:38;3.73;;;2.30;;
9072;SDS011;4572;41.642;25.370;2023-04-15T05:51:03;4.57;;;2.20;;
9072;SDS011;4572;41.642;25.370;2023-04-15T05:53:29;4.17;;;2.10;;
9072;SDS011;4572;41.642;25.370;2023-04-15T05:55:55;3.00;;;1.97;;
9072;SDS011;4572;41.642;25.370;2023-04-15T05:58:22;1.97;;;1.87;;
9072;SDS011;4572;41.642;25.370;2023-04-15T06:00:47;2.83;;;1.67;;
9072;SDS011;4572;41.642;25.370;2023-04-15T06:03:13;1.63;;;1.53;;
9072;SDS011;4572;41.642;25.370;2023-04-15T06:05:38;2.90;;;1.93;;
9072;SDS011;4572;41.642;25.370;2023-04-15T06:08:05;5.20;;;1.70;;
9072;SDS011;4572;41.642;25.370;2023-04-15T06:10:30;2.20;;;2.00;;
9072;SDS011;4572;41.642;25.370;2023-04-15T06:13:00;1.97;;;1.57;;
9072;SDS011;4572;41.642;25.370;2023-04-15T06:15:29;2.57;;;1.47;;
9072;SDS011;4572;41.642;25.370;2023-04-15T06:17:54;1.80;;;1.60;;
9072;SDS011;4572;41.642;25.370;2023-04-15T06:20:20;3.60;;;2.30;;
9072;SDS011;4572;41.642;25.370;2023-04-15T06:22:45;2.50;;;2.27;;
9072;SDS011;4572;41.642;25.370;2023-04-15T06:25:11;4.50;;;2.10;;
9072;SDS011;4572;41.642;25.370;2023-04-15T06:27:37;3.30;;;1.90;;
9072;SDS011;4572;41.642;25.370;2023-04-15T06:30:03;1.93;;;1.73;;
9072;SDS011;4572;41.642;25.370;2023-04-15T06:32:28;5.00;;;2.10;;
9072;SDS011;4572;41.642;25.370;2023-04-15T06:34:54;2.27;;;1.50;;
9072;SDS011;4572;41.642;25.370;2023-04-15T06:37:20;2.93;;;1.83;;
9072;SDS011;4572;41.642;25.370;2023-04-15T06:39:46;3.27;;;1.97;;
9072;SDS011;4572;41.642;25.370;2023-04-15T06:42:11;3.33;;;1.70;;
9072;SDS011;4572;41.642;25.370;2023-04-15T06:44:37;2.07;;;1.60;;
9072;SDS011;4572;41.642;25.370;2023-04-15T06:47:02;1.50;;;1.40;;
9072;SDS011;4572;41.642;25.370;2023-04-15T06:49:28;2.37;;;1.70;;
9072;SDS011;4572;41.642;25.370;2023-04-15T06:51:53;3.03;;;2.10;;
9072;SDS011;4572;41.642;25.370;2023-04-15T06:54:19;2.80;;;1.67;;
9072;SDS011;4572;41.642;25.370;2023-04-15T06:56:45;1.80;;;1.63;;
9072;SDS011;4572;41.642;25.370;2023-04-15T06:59:11;1.97;;;1.70;;
9072;SDS011;4572;41.642;25.370;2023-04-15T07:01:37;3.30;;;1.90;;
9072;SDS011;4572;41.642;25.370;2023-04-15T07:04:02;3.23;;;2.00;;
9072;SDS011;4572;41.642;25.370;2023-04-15T07:06:28;2.03;;;1.83;;
9072;SDS011;4572;41.642;25.370;2023-04-15T07:08:53;3.33;;;1.90;;
9072;SDS011;4572;41.642;25.370;2023-04-15T07:11:19;2.87;;;1.80;;
9072;SDS011;4572;41.642;25.370;2023-04-15T07:13:45;3.43;;;2.50;;
9072;SDS011;4572;41.642;25.370;2023-04-15T07:16:11;3.77;;;1.70;;
9072;SDS011;4572;41.642;25.370;2023-04-15T07:18:36;3.37;;;2.03;;
9072;SDS011;4572;41.642;25.370;2023-04-15T07:21:02;3.43;;;2.30;;
9072;SDS011;4572;41.642;25.370;2023-04-15T07:23:27;3.27;;;2.13;;
9072;SDS011;4572;41.642;25.370;2023-04-15T07:25:53;4.87;;;3.63;;
9072;SDS011;4572;41.642;25.370;2023-04-15T07:28:21;3.47;;;1.90;;
9072;SDS011;4572;41.642;25.370;2023-04-15T07:30:47;2.77;;;1.87;;
9072;SDS011;4572;41.642;25.370;2023-04-15T07:33:13;2.13;;;1.70;;
9072;SDS011;4572;41.642;25.370;2023-04-15T07:35:38;6.70;;;2.60;;
9072;SDS011;4572;41.642;25.370;2023-04-15T07:38:04;3.33;;;1.97;;
9072;SDS011;4572;41.642;25.370;2023-04-15T07:40:29;2.27;;;1.80;;
9072;SDS011;4572;41.642;25.370;2023-04-15T07:42:55;3.50;;;2.10;;
9072;SDS011;4572;41.642;25.370;2023-04-15T07:45:22;5.43;;;2.40;;
9072;SDS011;4572;41.642;25.370;2023-04-15T07:47:47;3.23;;;1.63;;
9072;SDS011;4572;41.642;25.370;2023-04-15T07:50:14;2.43;;;1.87;;
9072;SDS011;4572;41.642;25.370;2023-04-15T07:52:41;4.30;;;1.83;;
9072;SDS011;4572;41.642;25.370;2023-04-15T07:55:07;3.33;;;1.93;;
9072;SDS011;4572;41.642;25.370;2023-04-15T07:57:33;3.77;;;2.00;;
9072;SDS011;4572;41.642;25.370;2023-04-15T08:00:00;3.10;;;1.70;;
9072;SDS011;4572;41.642;25.370;2023-04-15T08:02:25;1.77;;;1.57;;
9072;SDS011;4572;41.642;25.370;2023-04-15T08:04:51;3.53;;;1.77;;
9072;SDS011;4572;41.642;25.370;2023-04-15T08:07:18;3.30;;;1.73;;
9072;SDS011;4572;41.642;25.370;2023-04-15T08:09:43;2.43;;;1.80;;
9072;SDS011;4572;41.642;25.370;2023-04-15T08:12:09;2.83;;;1.53;;
9072;SDS011;4572;41.642;25.370;2023-04-15T08:14:37;3.97;;;1.63;;
9072;SDS011;4572;41.642;25.370;2023-04-15T08:17:03;3.13;;;1.97;;
9072;SDS011;4572;41.642;25.370;2023-04-15T08:19:31;2.53;;;1.90;;
9072;SDS011;4572;41.642;25.370;2023-04-15T08:21:56;3.67;;;1.80;;
9072;SDS011;4572;41.642;25.370;2023-04-15T08:24:23;1.87;;;1.53;;
9072;SDS011;4572;41.642;25.370;2023-04-15T08:26:50;3.70;;;1.70;;
9072;SDS011;4572;41.642;25.370;2023-04-15T08:29:16;2.73;;;1.73;;
9072;SDS011;4572;41.642;25.370;2023-04-15T08:31:42;5.40;;;2.05;;
9072;SDS011;4572;41.642;25.370;2023-04-15T08:34:07;2.13;;;1.40;;
9072;SDS011;4572;41.642;25.370;2023-04-15T08:36:33;2.10;;;1.47;;
9072;SDS011;4572;41.642;25.370;2023-04-15T08:38:59;3.78;;;2.08;;
9072;SDS011;4572;41.642;25.370;2023-04-15T08:41:30;7.43;;;1.90;;
9072;SDS011;4572;41.642;25.370;2023-04-15T08:44:03;5.80;;;2.22;;
9072;SDS011;4572;41.642;25.370;2023-04-15T08:46:30;3.78;;;1.98;;
9072;SDS011;4572;41.642;25.370;2023-04-15T08:48:57;1.55;;;1.45;;
9072;SDS011;4572;41.642;25.370;2023-04-15T08:51:23;2.15;;;1.50;;
9072;SDS011;4572;41.642;25.370;2023-04-15T08:53:49;3.40;;;1.42;;
9072;SDS011;4572;41.642;25.370;2023-04-15T08:56:17;3.65;;;1.52;;
9072;SDS011;4572;41.642;25.370;2023-04-15T08:58:44;2.75;;;1.58;;
9072;SDS011;4572;41.642;25.370;2023-04-15T09:01:11;3.83;;;1.40;;
9072;SDS011;4572;41.642;25.370;2023-04-15T09:03:37;4.18;;;1.40;;
9072;SDS011;4572;41.642;25.370;2023-04-15T09:06:04;2.67;;;1.55;;
9072;SDS011;4572;41.642;25.370;2023-04-15T09:08:30;2.10;;;1.30;;
9072;SDS011;4572;41.642;25.370;2023-04-15T09:10:56;3.28;;;1.55;;
9072;SDS011;4572;41.642;25.370;2023-04-15T09:13:22;2.63;;;1.20;;
9072;SDS011;4572;41.642;25.370;2023-04-15T09:15:47;2.60;;;1.20;;
9072;SDS011;4572;41.642;25.370;2023-04-15T09:18:25;3.05;;;1.17;;
9072;SDS011;4572;41.642;25.370;2023-04-15T09:20:53;2.63;;;1.10;;
9072;SDS011;4572;41.642;25.370;2023-04-15T09:23:18;2.60;;;1.20;;
9072;SDS011;4572;41.642;25.370;2023-04-15T09:25:44;5.20;;;1.70;;
9072;SDS011;4572;41.642;25.370;2023-04-15T09:28:10;2.13;;;1.10;;
9072;SDS011;4572;41.642;25.370;2023-04-15T09:30:36;3.67;;;1.45;;
9072;SDS011;4572;41.642;25.370;2023-04-15T09:33:02;4.35;;;1.45;;
9072;SDS011;4572;41.642;25.370;2023-04-15T09:35:35;2.70;;;1.25;;
9072;SDS011;4572;41.642;25.370;2023-04-15T09:38:02;1.85;;;1.45;;
9072;SDS011;4572;41.642;25.370;2023-04-15T09:40:41;3.78;;;1.52;;
9072;SDS011;4572;41.642;25.370;2023-04-15T09:43:08;1.60;;;1.25;;
9072;SDS011;4572;41.642;25.370;2023-04-15T09:45:37;5.07;;;1.13;;
9072;SDS011;4572;41.642;25.370;2023-04-15T09:48:21;2.13;;;1.38;;
9072;SDS011;4572;41.642;25.370;2023-04-15T09:50:50;3.70;;;1.60;;
9072;SDS011;4572;41.642;25.370;2023-04-15T09:53:19;1.63;;;1.08;;
9072;SDS011;4572;41.642;25.370;2023-04-15T09:55:56;2.28;;;1.48;;
9072;SDS011;4572;41.642;25.370;2023-04-15T10:00:49;1.92;;;1.33;;
9072;SDS011;4572;41.642;25.370;2023-04-15T10:05:46;2.35;;;1.30;;
9072;SDS011;4572;41.642;25.370;2023-04-15T10:08:14;1.83;;;1.00;;
9072;SDS011;4572;41.642;25.370;2023-04-15T10:10:40;1.95;;;1.30;;
9072;SDS011;4572;41.642;25.370;2023-04-15T10:13:06;1.50;;;1.13;;
9072;SDS011;4572;41.642;25.370;2023-04-15T10:15:32;2.42;;;1.45;;
9072;SDS011;4572;41.642;25.370;2023-04-15T10:17:58;11.48;;;1.83;;
9072;SDS011;4572;41.642;25.370;2023-04-15T10:20:24;2.33;;;1.50;;
9072;SDS011;4572;41.642;25.370;2023-04-15T10:22:51;1.88;;;1.30;;
9072;SDS011;4572;41.642;25.370;2023-04-15T10:25:17;3.35;;;1.38;;
9072;SDS011;4572;41.642;25.370;2023-04-15T10:27:43;4.30;;;1.60;;
9072;SDS011;4572;41.642;25.370;2023-04-15T10:30:09;2.28;;;1.05;;
9072;SDS011;4572;41.642;25.370;2023-04-15T10:32:35;2.85;;;1.48;;
9072;SDS011;4572;41.642;25.370;2023-04-15T10:35:02;2.03;;;1.55;;
9072;SDS011;4572;41.642;25.370;2023-04-15T10:37:33;2.92;;;1.40;;
9072;SDS011;4572;41.642;25.370;2023-04-15T10:42:53;1.58;;;1.23;;
9072;SDS011;4572;41.642;25.370;2023-04-15T10:45:20;2.95;;;1.45;;
9072;SDS011;4572;41.642;25.370;2023-04-15T10:47:50;2.00;;;1.48;;
9072;SDS011;4572;41.642;25.370;2023-04-15T10:50:17;2.75;;;1.73;;
9072;SDS011;4572;41.642;25.370;2023-04-15T10:52:43;1.73;;;1.38;;
9072;SDS011;4572;41.642;25.370;2023-04-15T10:57:34;1.63;;;1.35;;
9072;SDS011;4572;41.642;25.370;2023-04-15T11:00:15;4.00;;;2.90;;
9072;SDS011;4572;41.642;25.370;2023-04-15T11:05:18;2.22;;;1.60;;
9072;SDS011;4572;41.642;25.370;2023-04-15T11:12:42;4.43;;;2.22;;
9072;SDS011;4572;41.642;25.370;2023-04-15T11:18:08;6.03;;;1.40;;
9072;SDS011;4572;41.642;25.370;2023-04-15T11:20:37;3.13;;;1.40;;
9072;SDS011;4572;41.642;25.370;2023-04-15T11:23:03;1.70;;;1.45;;
9072;SDS011;4572;41.642;25.370;2023-04-15T11:25:30;1.40;;;1.23;;
9072;SDS011;4572;41.642;25.370;2023-04-15T11:27:57;3.53;;;1.55;;
9072;SDS011;4572;41.642;25.370;2023-04-15T11:30:24;2.83;;;1.48;;
9072;SDS011;4572;41.642;25.370;2023-04-15T11:32:51;2.47;;;1.70;;
9072;SDS011;4572;41.642;25.370;2023-04-15T11:35:18;3.47;;;1.83;;
9072;SDS011;4572;41.642;25.370;2023-04-15T11:37:44;4.90;;;1.65;;
9072;SDS011;4572;41.642;25.370;2023-04-15T11:40:11;1.98;;;1.58;;
9072;SDS011;4572;41.642;25.370;2023-04-15T11:42:37;2.00;;;1.25;;
9072;SDS011;4572;41.642;25.370;2023-04-15T11:45:10;2.25;;;1.63;;
9072;SDS011;4572;41.642;25.370;2023-04-15T11:47:37;3.92;;;1.85;;
9072;SDS011;4572;41.642;25.370;2023-04-15T11:52:53;6.32;;;1.80;;
9072;SDS011;4572;41.642;25.370;2023-04-15T11:55:19;5.82;;;1.95;;
9072;SDS011;4572;41.642;25.370;2023-04-15T11:57:45;5.88;;;1.60;;
9072;SDS011;4572;41.642;25.370;2023-04-15T12:00:11;5.28;;;1.83;;
9072;SDS011;4572;41.642;25.370;2023-04-15T12:02:37;4.60;;;1.77;;
9072;SDS011;4572;41.642;25.370;2023-04-15T12:05:03;6.93;;;1.90;;
9072;SDS011;4572;41.642;25.370;2023-04-15T12:07:30;3.42;;;1.77;;
9072;SDS011;4572;41.642;25.370;2023-04-15T12:09:55;3.28;;;1.55;;
9072;SDS011;4572;41.642;25.370;2023-04-15T12:12:21;5.15;;;1.80;;
9072;SDS011;4572;41.642;25.370;2023-04-15T12:14:51;4.85;;;1.70;;
9072;SDS011;4572;41.642;25.370;2023-04-15T12:17:18;3.38;;;1.90;;
9072;SDS011;4572;41.642;25.370;2023-04-15T12:19:43;3.00;;;2.00;;
9072;SDS011;4572;41.642;25.370;2023-04-15T12:24:36;3.05;;;1.60;;
9072;SDS011;4572;41.642;25.370;2023-04-15T12:27:03;3.88;;;1.67;;
9072;SDS011;4572;41.642;25.370;2023-04-15T12:29:38;2.03;;;1.30;;
9072;SDS011;4572;41.642;25.370;2023-04-15T12:32:09;4.05;;;1.77;;
9072;SDS011;4572;41.642;25.370;2023-04-15T12:34:37;5.88;;;1.98;;
9072;SDS011;4572;41.642;25.370;2023-04-15T12:37:04;2.65;;;1.80;;
9072;SDS011;4572;41.642;25.370;2023-04-15T12:39:34;2.58;;;1.77;;
9072;SDS011;4572;41.642;25.370;2023-04-15T12:42:00;1.95;;;1.52;;
9072;SDS011;4572;41.642;25.370;2023-04-15T12:44:27;2.50;;;1.40;;
9072;SDS011;4572;41.642;25.370;2023-04-15T12:46:52;3.38;;;1.40;;
9072;SDS011;4572;41.642;25.370;2023-04-15T12:49:21;3.28;;;1.58;;
9072;SDS011;4572;41.642;25.370;2023-04-15T12:51:48;3.85;;;1.60;;
9072;SDS011;4572;41.642;25.370;2023-04-15T12:54:15;3.17;;;1.42;;
9072;SDS011;4572;41.642;25.370;2023-04-15T12:56:41;3.40;;;1.63;;
9072;SDS011;4572;41.642;25.370;2023-04-15T12:59:07;1.55;;;1.33;;
9072;SDS011;4572;41.642;25.370;2023-04-15T13:01:32;2.65;;;1.40;;
9072;SDS011;4572;41.642;25.370;2023-04-15T13:03:58;2.45;;;1.30;;
9072;SDS011;4572;41.642;25.370;2023-04-15T13:06:24;2.38;;;1.50;;
9072;SDS011;4572;41.642;25.370;2023-04-15T13:08:49;5.03;;;1.90;;
9072;SDS011;4572;41.642;25.370;2023-04-15T13:11:15;1.83;;;1.13;;
9072;SDS011;4572;41.642;25.370;2023-04-15T13:13:41;1.98;;;1.25;;
9072;SDS011;4572;41.642;25.370;2023-04-15T13:16:14;1.55;;;1.13;;
9072;SDS011;4572;41.642;25.370;2023-04-15T13:18:40;2.78;;;1.33;;
9072;SDS011;4572;41.642;25.370;2023-04-15T13:21:06;2.13;;;1.30;;
9072;SDS011;4572;41.642;25.370;2023-04-15T13:23:32;3.20;;;1.20;;
9072;SDS011;4572;41.642;25.370;2023-04-15T13:25:58;1.80;;;1.20;;
9072;SDS011;4572;41.642;25.370;2023-04-15T13:28:23;3.10;;;1.58;;
9072;SDS011;4572;41.642;25.370;2023-04-15T13:30:49;3.25;;;1.23;;
9072;SDS011;4572;41.642;25.370;2023-04-15T13:33:15;3.35;;;2.05;;
9072;SDS011;4572;41.642;25.370;2023-04-15T13:35:41;3.88;;;1.83;;
9072;SDS011;4572;41.642;25.370;2023-04-15T13:38:06;4.30;;;1.45;;
9072;SDS011;4572;41.642;25.370;2023-04-15T13:40:31;4.82;;;1.88;;
9072;SDS011;4572;41.642;25.370;2023-04-15T13:42:57;2.53;;;1.35;;
9072;SDS011;4572;41.642;25.370;2023-04-15T13:45:23;1.60;;;1.30;;
9072;SDS011;4572;41.642;25.370;2023-04-15T13:47:49;2.15;;;1.20;;
9072;SDS011;4572;41.642;25.370;2023-04-15T13:50:15;5.18;;;1.80;;
9072;SDS011;4572;41.642;25.370;2023-04-15T13:52:40;2.67;;;1.08;;
9072;SDS011;4572;41.642;25.370;2023-04-15T13:55:06;1.60;;;1.17;;
9072;SDS011;4572;41.642;25.370;2023-04-15T13:57:32;3.60;;;1.38;;
9072;SDS011;4572;41.642;25.370;2023-04-15T13:59:57;1.48;;;1.00;;
9072;SDS011;4572;41.642;25.370;2023-04-15T14:02:23;1.77;;;1.10;;
9072;SDS011;4572;41.642;25.370;2023-04-15T14:04:48;2.70;;;1.50;;
9072;SDS011;4572;41.642;25.370;2023-04-15T14:07:14;2.70;;;1.40;;
9072;SDS011;4572;41.642;25.370;2023-04-15T14:09:40;3.13;;;1.30;;
9072;SDS011;4572;41.642;25.370;2023-04-15T14:12:05;2.90;;;1.10;;
9072;SDS011;4572;41.642;25.370;2023-04-15T14:14:31;3.08;;;1.20;;
9072;SDS011;4572;41.642;25.370;2023-04-15T14:16:56;1.83;;;1.23;;
9072;SDS011;4572;41.642;25.370;2023-04-15T14:19:23;1.10;;;0.95;;
9072;SDS011;4572;41.642;25.370;2023-04-15T14:21:48;1.30;;;1.20;;
9072;SDS011;4572;41.642;25.370;2023-04-15T14:24:15;2.08;;;1.15;;
9072;SDS011;4572;41.642;25.370;2023-04-15T14:26:41;0.80;;;0.80;;
9072;SDS011;4572;41.642;25.370;2023-04-15T14:29:08;1.98;;;1.10;;
9072;SDS011;4572;41.642;25.370;2023-04-15T14:31:33;1.33;;;1.00;;
9072;SDS011;4572;41.642;25.370;2023-04-15T14:33:59;0.95;;;0.85;;
9072;SDS011;4572;41.642;25.370;2023-04-15T14:36:25;1.33;;;1.02;;
9072;SDS011;4572;41.642;25.370;2023-04-15T14:38:51;1.20;;;1.10;;
9072;SDS011;4572;41.642;25.370;2023-04-15T14:41:16;2.80;;;1.33;;
9072;SDS011;4572;41.642;25.370;2023-04-15T14:43:42;1.27;;;1.15;;
9072;SDS011;4572;41.642;25.370;2023-04-15T14:46:07;1.52;;;1.10;;
9072;SDS011;4572;41.642;25.370;2023-04-15T14:48:33;2.53;;;1.50;;
9072;SDS011;4572;41.642;25.370;2023-04-15T14:50:58;2.78;;;1.38;;
9072;SDS011;4572;41.642;25.370;2023-04-15T14:53:24;1.40;;;1.05;;
9072;SDS011;4572;41.642;25.370;2023-04-15T14:55:50;2.95;;;1.20;;
9072;SDS011;4572;41.642;25.370;2023-04-15T14:58:15;1.48;;;1.00;;
9072;SDS011;4572;41.642;25.370;2023-04-15T15:00:40;1.23;;;0.90;;
9072;SDS011;4572;41.642;25.370;2023-04-15T15:03:09;1.83;;;1.30;;
9072;SDS011;4572;41.642;25.370;2023-04-15T15:05:42;2.08;;;1.10;;
9072;SDS011;4572;41.642;25.370;2023-04-15T15:08:10;3.47;;;1.27;;
9072;SDS011;4572;41.642;25.370;2023-04-15T15:10:38;2.47;;;1.10;;
9072;SDS011;4572;41.642;25.370;2023-04-15T15:13:05;2.25;;;1.20;;
9072;SDS011;4572;41.642;25.370;2023-04-15T15:15:32;2.17;;;1.10;;
9072;SDS011;4572;41.642;25.370;2023-04-15T15:17:59;5.00;;;3.30;;
9072;SDS011;4572;41.642;25.370;2023-04-15T15:20:25;2.50;;;1.55;;